Terminal Aerodrome Forecast
Issued by NWS

Home | Current Version | Previous Version | Text Only | Print | Product List | Glossary On
Versions: 1 2 3 4 5 6 7 8 9 10 11 12 13 14 15 16 17
000
FTUS46 KOTX 210536
TAFCOE
TAF
KCOE 210536Z 2106/2206 01010KT P6SM FEW100 SCT110
     FM210800 04010KT P6SM SCT004 SCT060 OVC100
     FM211600 05009KT 3SM -SN SCT004 OVC015
     FM212200 04007KT P6SM VCSH BKN025 OVC040
     FM220000 05008KT P6SM SCT030 OVC050=

USA.gov is the U.S. government's official web portal to all federal, state and local government web resources and services.